首页
METAR-TAF:

METAR-TAF

机场 :

Robins Air Force Base

Warner Robins, 喬治亞, 美国

纬度: 32-38N, 经度: 083-36W, 海拔: 90米

当前天气观测

该预报发布于20分钟前的05:56 UTC
静风
温度 22°C
湿度 94%
气压 1018 hPa
能見度: 16.1公里
天空无云

METAR: KWRB 270556Z AUTO 00000KT 10SM CLR 22/21 A3005 RMK AO2 SLP175 T02240207 10339 20224 58000

时间: 02:16 (06:16 UTC)

预报

该预报发布于1小时和16分钟前的05:00 UTC
预报有效从27日的 05点(UTC)到 28日的 11点(UTC)
风速6节,风向多变
能见度10公里或以上
少量云层高于6000英尺

TAF: KWRB 270500Z 2705/2811 VRB06KT 9999 FEW060 QNH2990INS TX35/2720Z TN22/2710Z

超过4000个机场的气象观测和天气预报(METAR&TAF报告)。

可查询的气象台以黄色和红色小点在地图上表示。

将鼠标移到小点上方,可查看气象台名称。

然后点击查看天气观测和预报。

如需切换地图:点击带黑十字的绿色按钮放大地图;点击带横线的绿色按钮缩小地图;或者点击绿色箭头查看邻近地区的地图。


METAR-TAF: